sensor_id;sensor_type;location;lat;lon;timestamp;P1;durP1;ratioP1;P2;durP2;ratioP2
4307;SDS011;2167;53.448;9.984;2022-09-09T00:04:29;21.87;;;12.30;;
4307;SDS011;2167;53.448;9.984;2022-09-09T00:07:07;22.20;;;10.90;;
4307;SDS011;2167;53.448;9.984;2022-09-09T00:15:24;21.23;;;11.33;;
4307;SDS011;2167;53.448;9.984;2022-09-09T00:18:03;19.27;;;9.20;;
4307;SDS011;2167;53.448;9.984;2022-09-09T00:23:30;21.70;;;12.00;;
4307;SDS011;2167;53.448;9.984;2022-09-09T00:26:09;19.90;;;10.00;;
4307;SDS011;2167;53.448;9.984;2022-09-09T00:32:11;21.77;;;10.90;;
4307;SDS011;2167;53.448;9.984;2022-09-09T00:34:55;31.00;;;13.00;;
4307;SDS011;2167;53.448;9.984;2022-09-09T00:37:45;20.80;;;13.20;;
4307;SDS011;2167;53.448;9.984;2022-09-09T00:40:33;22.20;;;12.03;;
4307;SDS011;2167;53.448;9.984;2022-09-09T01:04:57;18.73;;;10.03;;
4307;SDS011;2167;53.448;9.984;2022-09-09T01:07:32;20.03;;;10.30;;
4307;SDS011;2167;53.448;9.984;2022-09-09T01:09:58;12.93;;;8.00;;
4307;SDS011;2167;53.448;9.984;2022-09-09T01:17:58;16.43;;;9.00;;
4307;SDS011;2167;53.448;9.984;2022-09-09T01:20:51;13.87;;;8.43;;
4307;SDS011;2167;53.448;9.984;2022-09-09T01:28:47;16.50;;;8.97;;
4307;SDS011;2167;53.448;9.984;2022-09-09T01:31:16;12.73;;;7.93;;
4307;SDS011;2167;53.448;9.984;2022-09-09T01:33:45;17.67;;;8.87;;
4307;SDS011;2167;53.448;9.984;2022-09-09T01:36:18;19.70;;;9.87;;
4307;SDS011;2167;53.448;9.984;2022-09-09T01:38:52;16.10;;;8.20;;
4307;SDS011;2167;53.448;9.984;2022-09-09T01:41:18;15.73;;;8.90;;
4307;SDS011;2167;53.448;9.984;2022-09-09T01:43:43;13.00;;;8.63;;
4307;SDS011;2167;53.448;9.984;2022-09-09T01:46:09;15.13;;;8.00;;
4307;SDS011;2167;53.448;9.984;2022-09-09T01:48:37;16.80;;;8.53;;
4307;SDS011;2167;53.448;9.984;2022-09-09T01:51:03;13.37;;;7.60;;
4307;SDS011;2167;53.448;9.984;2022-09-09T01:53:29;16.50;;;8.47;;
4307;SDS011;2167;53.448;9.984;2022-09-09T01:56:00;14.83;;;8.27;;
4307;SDS011;2167;53.448;9.984;2022-09-09T01:58:53;13.57;;;7.57;;
4307;SDS011;2167;53.448;9.984;2022-09-09T02:04:44;16.30;;;9.37;;
4307;SDS011;2167;53.448;9.984;2022-09-09T02:13:08;16.97;;;7.37;;
4307;SDS011;2167;53.448;9.984;2022-09-09T02:15:44;12.87;;;7.30;;
4307;SDS011;2167;53.448;9.984;2022-09-09T02:18:22;16.87;;;9.00;;
4307;SDS011;2167;53.448;9.984;2022-09-09T02:20:52;11.80;;;7.13;;
4307;SDS011;2167;53.448;9.984;2022-09-09T02:23:18;14.40;;;8.70;;
4307;SDS011;2167;53.448;9.984;2022-09-09T02:25:45;11.90;;;8.03;;
4307;SDS011;2167;53.448;9.984;2022-09-09T02:28:13;17.73;;;8.23;;
4307;SDS011;2167;53.448;9.984;2022-09-09T02:30:41;16.63;;;8.00;;
4307;SDS011;2167;53.448;9.984;2022-09-09T02:33:11;13.70;;;7.73;;
4307;SDS011;2167;53.448;9.984;2022-09-09T02:35:39;16.33;;;8.80;;
4307;SDS011;2167;53.448;9.984;2022-09-09T02:38:08;12.90;;;6.60;;
4307;SDS011;2167;53.448;9.984;2022-09-09T02:40:37;18.73;;;8.60;;
4307;SDS011;2167;53.448;9.984;2022-09-09T02:43:03;16.67;;;8.53;;
4307;SDS011;2167;53.448;9.984;2022-09-09T02:45:31;14.20;;;7.77;;
4307;SDS011;2167;53.448;9.984;2022-09-09T02:48:20;20.07;;;8.70;;
4307;SDS011;2167;53.448;9.984;2022-09-09T02:51:06;14.03;;;8.30;;
4307;SDS011;2167;53.448;9.984;2022-09-09T02:54:38;13.00;;;8.30;;
4307;SDS011;2167;53.448;9.984;2022-09-09T02:56:51;12.37;;;8.23;;
4307;SDS011;2167;53.448;9.984;2022-09-09T02:59:20;15.70;;;9.17;;
4307;SDS011;2167;53.448;9.984;2022-09-09T03:01:46;16.03;;;8.47;;
4307;SDS011;2167;53.448;9.984;2022-09-09T03:04:12;15.20;;;8.70;;
4307;SDS011;2167;53.448;9.984;2022-09-09T03:06:38;11.23;;;7.27;;
4307;SDS011;2167;53.448;9.984;2022-09-09T03:09:04;12.90;;;8.27;;
4307;SDS011;2167;53.448;9.984;2022-09-09T03:11:30;12.10;;;7.50;;
4307;SDS011;2167;53.448;9.984;2022-09-09T03:13:55;13.53;;;7.20;;
4307;SDS011;2167;53.448;9.984;2022-09-09T03:16:22;14.40;;;8.20;;
4307;SDS011;2167;53.448;9.984;2022-09-09T03:18:48;12.20;;;8.20;;
4307;SDS011;2167;53.448;9.984;2022-09-09T03:21:14;13.87;;;7.57;;
4307;SDS011;2167;53.448;9.984;2022-09-09T03:23:40;12.33;;;7.97;;
4307;SDS011;2167;53.448;9.984;2022-09-09T03:26:06;12.03;;;7.17;;
4307;SDS011;2167;53.448;9.984;2022-09-09T03:28:32;14.43;;;7.53;;
4307;SDS011;2167;53.448;9.984;2022-09-09T03:31:01;21.77;;;7.50;;
4307;SDS011;2167;53.448;9.984;2022-09-09T03:33:28;14.77;;;8.13;;
4307;SDS011;2167;53.448;9.984;2022-09-09T03:35:55;13.87;;;8.40;;
4307;SDS011;2167;53.448;9.984;2022-09-09T03:38:22;14.90;;;8.47;;
4307;SDS011;2167;53.448;9.984;2022-09-09T03:40:49;15.30;;;8.67;;
4307;SDS011;2167;53.448;9.984;2022-09-09T03:43:20;14.93;;;8.50;;
4307;SDS011;2167;53.448;9.984;2022-09-09T03:45:47;11.77;;;6.80;;
4307;SDS011;2167;53.448;9.984;2022-09-09T03:48:13;12.20;;;8.03;;
4307;SDS011;2167;53.448;9.984;2022-09-09T03:50:43;15.90;;;8.43;;
4307;SDS011;2167;53.448;9.984;2022-09-09T03:53:13;21.13;;;9.57;;
4307;SDS011;2167;53.448;9.984;2022-09-09T03:55:44;15.33;;;7.27;;
4307;SDS011;2167;53.448;9.984;2022-09-09T03:58:10;11.20;;;6.13;;
4307;SDS011;2167;53.448;9.984;2022-09-09T04:00:37;14.73;;;8.13;;
4307;SDS011;2167;53.448;9.984;2022-09-09T04:03:07;13.07;;;7.60;;
4307;SDS011;2167;53.448;9.984;2022-09-09T04:05:36;12.70;;;7.80;;
4307;SDS011;2167;53.448;9.984;2022-09-09T04:08:07;10.60;;;6.93;;
4307;SDS011;2167;53.448;9.984;2022-09-09T04:10:33;14.07;;;8.57;;
4307;SDS011;2167;53.448;9.984;2022-09-09T04:13:01;9.30;;;7.07;;
4307;SDS011;2167;53.448;9.984;2022-09-09T04:15:27;13.10;;;8.30;;
4307;SDS011;2167;53.448;9.984;2022-09-09T04:17:53;9.90;;;6.50;;
4307;SDS011;2167;53.448;9.984;2022-09-09T04:20:18;10.80;;;6.73;;
4307;SDS011;2167;53.448;9.984;2022-09-09T04:22:44;11.23;;;7.40;;
4307;SDS011;2167;53.448;9.984;2022-09-09T04:25:10;11.00;;;6.90;;
4307;SDS011;2167;53.448;9.984;2022-09-09T04:27:36;12.40;;;7.07;;
4307;SDS011;2167;53.448;9.984;2022-09-09T04:30:02;10.17;;;6.77;;
4307;SDS011;2167;53.448;9.984;2022-09-09T04:32:27;11.50;;;7.67;;
4307;SDS011;2167;53.448;9.984;2022-09-09T04:34:53;10.43;;;6.20;;
4307;SDS011;2167;53.448;9.984;2022-09-09T04:37:19;11.13;;;6.63;;
4307;SDS011;2167;53.448;9.984;2022-09-09T04:39:44;11.10;;;6.23;;
4307;SDS011;2167;53.448;9.984;2022-09-09T04:42:10;9.40;;;5.97;;
4307;SDS011;2167;53.448;9.984;2022-09-09T04:44:37;10.30;;;6.40;;
4307;SDS011;2167;53.448;9.984;2022-09-09T04:47:04;7.43;;;5.70;;
4307;SDS011;2167;53.448;9.984;2022-09-09T04:49:29;9.13;;;5.97;;
4307;SDS011;2167;53.448;9.984;2022-09-09T04:51:56;8.73;;;4.87;;
4307;SDS011;2167;53.448;9.984;2022-09-09T04:54:22;11.00;;;5.87;;
4307;SDS011;2167;53.448;9.984;2022-09-09T04:56:49;9.77;;;6.03;;
4307;SDS011;2167;53.448;9.984;2022-09-09T04:59:15;11.73;;;5.90;;
4307;SDS011;2167;53.448;9.984;2022-09-09T05:01:41;9.00;;;6.70;;
4307;SDS011;2167;53.448;9.984;2022-09-09T05:04:07;11.13;;;7.30;;
4307;SDS011;2167;53.448;9.984;2022-09-09T05:06:34;9.90;;;6.47;;
4307;SDS011;2167;53.448;9.984;2022-09-09T05:09:01;8.07;;;5.80;;
4307;SDS011;2167;53.448;9.984;2022-09-09T05:11:27;6.50;;;5.30;;
4307;SDS011;2167;53.448;9.984;2022-09-09T05:13:54;8.77;;;5.97;;
4307;SDS011;2167;53.448;9.984;2022-09-09T05:16:22;9.17;;;5.30;;
4307;SDS011;2167;53.448;9.984;2022-09-09T05:18:47;7.60;;;5.03;;
4307;SDS011;2167;53.448;9.984;2022-09-09T05:21:16;9.03;;;5.63;;
4307;SDS011;2167;53.448;9.984;2022-09-09T05:23:44;6.40;;;5.00;;
4307;SDS011;2167;53.448;9.984;2022-09-09T05:26:15;9.47;;;5.13;;
4307;SDS011;2167;53.448;9.984;2022-09-09T05:28:42;7.20;;;4.73;;
4307;SDS011;2167;53.448;9.984;2022-09-09T05:31:08;9.00;;;5.67;;
4307;SDS011;2167;53.448;9.984;2022-09-09T05:33:36;6.00;;;5.00;;
4307;SDS011;2167;53.448;9.984;2022-09-09T05:36:12;8.43;;;5.30;;
4307;SDS011;2167;53.448;9.984;2022-09-09T05:38:40;7.00;;;4.93;;
4307;SDS011;2167;53.448;9.984;2022-09-09T05:41:06;6.90;;;5.73;;
4307;SDS011;2167;53.448;9.984;2022-09-09T05:43:32;7.87;;;5.13;;
4307;SDS011;2167;53.448;9.984;2022-09-09T05:48:37;11.57;;;6.67;;
4307;SDS011;2167;53.448;9.984;2022-09-09T05:51:04;15.87;;;6.60;;
4307;SDS011;2167;53.448;9.984;2022-09-09T05:53:34;7.43;;;5.73;;
4307;SDS011;2167;53.448;9.984;2022-09-09T05:58:29;10.13;;;6.30;;
4307;SDS011;2167;53.448;9.984;2022-09-09T06:01:05;10.57;;;5.47;;
4307;SDS011;2167;53.448;9.984;2022-09-09T06:03:36;10.03;;;5.10;;
4307;SDS011;2167;53.448;9.984;2022-09-09T06:06:04;10.03;;;7.33;;
4307;SDS011;2167;53.448;9.984;2022-09-09T06:08:37;11.00;;;6.00;;
4307;SDS011;2167;53.448;9.984;2022-09-09T06:11:05;9.13;;;5.30;;
4307;SDS011;2167;53.448;9.984;2022-09-09T06:13:32;7.50;;;5.13;;
4307;SDS011;2167;53.448;9.984;2022-09-09T06:15:58;7.43;;;5.30;;
4307;SDS011;2167;53.448;9.984;2022-09-09T06:18:24;9.43;;;6.10;;
4307;SDS011;2167;53.448;9.984;2022-09-09T06:20:54;6.10;;;4.67;;
4307;SDS011;2167;53.448;9.984;2022-09-09T06:23:20;7.80;;;4.63;;
4307;SDS011;2167;53.448;9.984;2022-09-09T06:25:46;9.17;;;4.17;;
4307;SDS011;2167;53.448;9.984;2022-09-09T06:28:12;5.83;;;4.17;;
4307;SDS011;2167;53.448;9.984;2022-09-09T06:30:38;5.90;;;3.90;;
4307;SDS011;2167;53.448;9.984;2022-09-09T06:33:04;5.50;;;3.77;;
4307;SDS011;2167;53.448;9.984;2022-09-09T06:35:30;6.93;;;3.60;;
4307;SDS011;2167;53.448;9.984;2022-09-09T06:37:56;7.17;;;4.17;;
4307;SDS011;2167;53.448;9.984;2022-09-09T06:40:23;8.00;;;3.90;;
4307;SDS011;2167;53.448;9.984;2022-09-09T06:42:49;6.73;;;4.50;;
4307;SDS011;2167;53.448;9.984;2022-09-09T06:45:15;7.07;;;4.27;;
4307;SDS011;2167;53.448;9.984;2022-09-09T06:47:40;4.70;;;3.80;;
4307;SDS011;2167;53.448;9.984;2022-09-09T06:50:06;6.40;;;4.67;;
4307;SDS011;2167;53.448;9.984;2022-09-09T06:52:34;8.33;;;4.40;;
4307;SDS011;2167;53.448;9.984;2022-09-09T06:58:31;6.93;;;4.07;;
4307;SDS011;2167;53.448;9.984;2022-09-09T07:13:41;6.90;;;4.10;;
4307;SDS011;2167;53.448;9.984;2022-09-09T07:16:08;10.63;;;4.27;;
4307;SDS011;2167;53.448;9.984;2022-09-09T07:18:35;7.40;;;4.20;;
4307;SDS011;2167;53.448;9.984;2022-09-09T07:21:01;7.30;;;4.40;;
4307;SDS011;2167;53.448;9.984;2022-09-09T07:23:28;8.77;;;3.63;;
4307;SDS011;2167;53.448;9.984;2022-09-09T07:25:55;5.50;;;3.60;;
4307;SDS011;2167;53.448;9.984;2022-09-09T07:28:24;4.30;;;3.37;;
4307;SDS011;2167;53.448;9.984;2022-09-09T07:30:58;4.77;;;3.90;;
4307;SDS011;2167;53.448;9.984;2022-09-09T07:33:28;5.40;;;4.10;;
4307;SDS011;2167;53.448;9.984;2022-09-09T07:36:01;4.77;;;3.67;;
4307;SDS011;2167;53.448;9.984;2022-09-09T07:38:42;4.73;;;3.93;;
4307;SDS011;2167;53.448;9.984;2022-09-09T07:41:31;11.43;;;3.73;;
4307;SDS011;2167;53.448;9.984;2022-09-09T07:43:59;5.00;;;3.53;;
4307;SDS011;2167;53.448;9.984;2022-09-09T07:46:25;5.30;;;4.00;;
4307;SDS011;2167;53.448;9.984;2022-09-09T07:48:55;4.97;;;4.53;;
4307;SDS011;2167;53.448;9.984;2022-09-09T07:51:28;5.33;;;3.67;;
4307;SDS011;2167;53.448;9.984;2022-09-09T07:53:57;3.70;;;3.37;;
4307;SDS011;2167;53.448;9.984;2022-09-09T07:56:25;5.17;;;3.30;;
4307;SDS011;2167;53.448;9.984;2022-09-09T07:58:52;4.90;;;3.50;;
4307;SDS011;2167;53.448;9.984;2022-09-09T08:03:46;3.70;;;2.83;;
4307;SDS011;2167;53.448;9.984;2022-09-09T08:06:17;7.77;;;3.60;;
4307;SDS011;2167;53.448;9.984;2022-09-09T08:08:43;4.80;;;3.37;;
4307;SDS011;2167;53.448;9.984;2022-09-09T08:11:12;5.03;;;3.23;;
4307;SDS011;2167;53.448;9.984;2022-09-09T08:13:40;6.13;;;3.60;;
4307;SDS011;2167;53.448;9.984;2022-09-09T08:16:08;6.03;;;4.70;;
4307;SDS011;2167;53.448;9.984;2022-09-09T08:18:35;5.60;;;3.80;;
4307;SDS011;2167;53.448;9.984;2022-09-09T08:23:39;3.90;;;2.80;;
4307;SDS011;2167;53.448;9.984;2022-09-09T08:26:10;4.43;;;3.50;;
4307;SDS011;2167;53.448;9.984;2022-09-09T08:28:38;5.53;;;3.00;;
4307;SDS011;2167;53.448;9.984;2022-09-09T08:31:06;4.83;;;3.33;;
4307;SDS011;2167;53.448;9.984;2022-09-09T08:33:36;6.03;;;3.20;;
4307;SDS011;2167;53.448;9.984;2022-09-09T08:36:03;7.20;;;3.50;;
4307;SDS011;2167;53.448;9.984;2022-09-09T08:38:30;5.50;;;2.77;;
4307;SDS011;2167;53.448;9.984;2022-09-09T08:40:58;5.63;;;4.10;;
4307;SDS011;2167;53.448;9.984;2022-09-09T08:43:33;5.93;;;3.20;;
4307;SDS011;2167;53.448;9.984;2022-09-09T08:46:02;4.33;;;3.10;;
4307;SDS011;2167;53.448;9.984;2022-09-09T08:51:26;6.63;;;2.80;;
4307;SDS011;2167;53.448;9.984;2022-09-09T08:53:54;4.60;;;3.20;;
4307;SDS011;2167;53.448;9.984;2022-09-09T08:56:25;3.20;;;2.73;;
4307;SDS011;2167;53.448;9.984;2022-09-09T08:58:53;3.90;;;3.50;;
4307;SDS011;2167;53.448;9.984;2022-09-09T09:01:25;3.73;;;2.57;;
4307;SDS011;2167;53.448;9.984;2022-09-09T09:04:00;2.90;;;2.70;;
4307;SDS011;2167;53.448;9.984;2022-09-09T09:06:46;3.90;;;2.87;;
4307;SDS011;2167;53.448;9.984;2022-09-09T09:12:20;8.83;;;3.73;;
4307;SDS011;2167;53.448;9.984;2022-09-09T09:14:49;8.87;;;2.43;;
4307;SDS011;2167;53.448;9.984;2022-09-09T09:17:16;2.50;;;2.30;;
4307;SDS011;2167;53.448;9.984;2022-09-09T09:19:44;2.30;;;2.10;;
4307;SDS011;2167;53.448;9.984;2022-09-09T09:22:18;3.60;;;2.43;;
4307;SDS011;2167;53.448;9.984;2022-09-09T09:27:33;5.63;;;2.40;;
4307;SDS011;2167;53.448;9.984;2022-09-09T09:30:04;3.00;;;1.73;;
4307;SDS011;2167;53.448;9.984;2022-09-09T09:32:40;4.10;;;2.23;;
4307;SDS011;2167;53.448;9.984;2022-09-09T09:35:12;2.37;;;2.03;;
4307;SDS011;2167;53.448;9.984;2022-09-09T09:37:39;3.50;;;1.90;;
4307;SDS011;2167;53.448;9.984;2022-09-09T09:40:24;4.03;;;2.23;;
4307;SDS011;2167;53.448;9.984;2022-09-09T09:42:53;5.63;;;4.27;;
4307;SDS011;2167;53.448;9.984;2022-09-09T09:45:43;2.80;;;1.73;;
4307;SDS011;2167;53.448;9.984;2022-09-09T09:48:10;5.20;;;2.33;;
4307;SDS011;2167;53.448;9.984;2022-09-09T09:50:46;2.30;;;2.03;;
4307;SDS011;2167;53.448;9.984;2022-09-09T09:53:32;7.73;;;2.30;;
4307;SDS011;2167;53.448;9.984;2022-09-09T09:56:02;2.57;;;2.10;;
4307;SDS011;2167;53.448;9.984;2022-09-09T10:01:20;1.40;;;1.30;;
4307;SDS011;2167;53.448;9.984;2022-09-09T10:03:53;2.63;;;1.30;;
4307;SDS011;2167;53.448;9.984;2022-09-09T10:06:30;2.07;;;1.80;;
4307;SDS011;2167;53.448;9.984;2022-09-09T10:09:01;3.27;;;1.80;;
4307;SDS011;2167;53.448;9.984;2022-09-09T10:11:30;3.97;;;1.60;;
4307;SDS011;2167;53.448;9.984;2022-09-09T10:14:21;4.70;;;1.50;;
4307;SDS011;2167;53.448;9.984;2022-09-09T10:17:14;0.87;;;0.87;;
4307;SDS011;2167;53.448;9.984;2022-09-09T10:25:59;2.07;;;1.10;;
4307;SDS011;2167;53.448;9.984;2022-09-09T10:28:51;1.50;;;1.30;;
4307;SDS011;2167;53.448;9.984;2022-09-09T10:34:20;1.83;;;1.10;;
4307;SDS011;2167;53.448;9.984;2022-09-09T10:37:18;1.37;;;1.00;;
4307;SDS011;2167;53.448;9.984;2022-09-09T10:40:45;1.10;;;1.00;;
4307;SDS011;2167;53.448;9.984;2022-09-09T10:43:11;4.57;;;1.00;;
4307;SDS011;2167;53.448;9.984;2022-09-09T10:48:50;1.47;;;1.37;;
4307;SDS011;2167;53.448;9.984;2022-09-09T10:51:44;1.20;;;1.10;;
4307;SDS011;2167;53.448;9.984;2022-09-09T10:57:37;4.87;;;1.50;;
4307;SDS011;2167;53.448;9.984;2022-09-09T11:00:21;4.93;;;1.80;;
4307;SDS011;2167;53.448;9.984;2022-09-09T11:02:49;5.87;;;1.40;;
4307;SDS011;2167;53.448;9.984;2022-09-09T11:05:21;1.43;;;1.33;;
4307;SDS011;2167;53.448;9.984;2022-09-09T11:08:12;2.43;;;2.27;;
4307;SDS011;2167;53.448;9.984;2022-09-09T11:13:41;1.97;;;1.33;;
4307;SDS011;2167;53.448;9.984;2022-09-09T11:19:11;2.70;;;1.50;;
4307;SDS011;2167;53.448;9.984;2022-09-09T11:21:45;1.63;;;1.53;;
4307;SDS011;2167;53.448;9.984;2022-09-09T11:24:19;2.70;;;2.10;;
4307;SDS011;2167;53.448;9.984;2022-09-09T11:26:51;1.57;;;1.40;;
4307;SDS011;2167;53.448;9.984;2022-09-09T11:32:39;2.17;;;1.63;;
4307;SDS011;2167;53.448;9.984;2022-09-09T11:41:34;4.83;;;1.97;;
4307;SDS011;2167;53.448;9.984;2022-09-09T11:44:09;2.80;;;1.70;;
4307;SDS011;2167;53.448;9.984;2022-09-09T11:46:42;1.93;;;1.57;;
4307;SDS011;2167;53.448;9.984;2022-09-09T11:52:21;1.73;;;1.50;;
4307;SDS011;2167;53.448;9.984;2022-09-09T11:54:50;6.23;;;1.70;;
4307;SDS011;2167;53.448;9.984;2022-09-09T11:57:24;3.07;;;1.57;;
4307;SDS011;2167;53.448;9.984;2022-09-09T11:59:55;2.50;;;1.90;;
4307;SDS011;2167;53.448;9.984;2022-09-09T12:02:25;1.57;;;1.47;;
4307;SDS011;2167;53.448;9.984;2022-09-09T12:05:00;2.00;;;1.80;;
4307;SDS011;2167;53.448;9.984;2022-09-09T12:07:35;1.87;;;1.77;;
4307;SDS011;2167;53.448;9.984;2022-09-09T12:10:05;2.20;;;2.00;;
4307;SDS011;2167;53.448;9.984;2022-09-09T12:12:43;3.80;;;2.20;;
4307;SDS011;2167;53.448;9.984;2022-09-09T12:17:41;2.90;;;2.33;;
4307;SDS011;2167;53.448;9.984;2022-09-09T12:20:16;2.60;;;2.40;;
4307;SDS011;2167;53.448;9.984;2022-09-09T12:23:08;3.03;;;2.10;;
4307;SDS011;2167;53.448;9.984;2022-09-09T12:26:07;2.10;;;1.60;;
4307;SDS011;2167;53.448;9.984;2022-09-09T12:34:24;3.93;;;1.80;;
4307;SDS011;2167;53.448;9.984;2022-09-09T12:42:30;7.50;;;4.53;;
4307;SDS011;2167;53.448;9.984;2022-09-09T12:45:01;4.10;;;2.53;;
4307;SDS011;2167;53.448;9.984;2022-09-09T12:50:03;3.00;;;2.70;;
4307;SDS011;2167;53.448;9.984;2022-09-09T12:52:33;5.40;;;3.27;;
4307;SDS011;2167;53.448;9.984;2022-09-09T12:55:03;3.67;;;2.83;;
4307;SDS011;2167;53.448;9.984;2022-09-09T12:57:34;3.20;;;2.83;;
4307;SDS011;2167;53.448;9.984;2022-09-09T13:00:07;2.90;;;2.70;;
4307;SDS011;2167;53.448;9.984;2022-09-09T13:03:02;6.17;;;3.90;;
4307;SDS011;2167;53.448;9.984;2022-09-09T13:05:41;6.67;;;4.80;;
4307;SDS011;2167;53.448;9.984;2022-09-09T13:08:11;4.90;;;3.63;;
4307;SDS011;2167;53.448;9.984;2022-09-09T13:10:39;12.87;;;4.50;;
4307;SDS011;2167;53.448;9.984;2022-09-09T13:13:15;8.80;;;3.63;;
4307;SDS011;2167;53.448;9.984;2022-09-09T13:15:55;5.80;;;3.43;;
4307;SDS011;2167;53.448;9.984;2022-09-09T13:18:23;11.10;;;4.80;;
4307;SDS011;2167;53.448;9.984;2022-09-09T13:20:53;11.73;;;5.77;;
4307;SDS011;2167;53.448;9.984;2022-09-09T13:23:22;8.80;;;3.50;;
4307;SDS011;2167;53.448;9.984;2022-09-09T13:26:04;6.20;;;3.60;;
4307;SDS011;2167;53.448;9.984;2022-09-09T13:28:32;6.80;;;4.13;;
4307;SDS011;2167;53.448;9.984;2022-09-09T13:31:00;8.30;;;4.57;;
4307;SDS011;2167;53.448;9.984;2022-09-09T13:33:35;6.73;;;3.90;;
4307;SDS011;2167;53.448;9.984;2022-09-09T13:36:03;10.80;;;4.00;;
4307;SDS011;2167;53.448;9.984;2022-09-09T13:38:32;3.97;;;3.50;;
4307;SDS011;2167;53.448;9.984;2022-09-09T13:41:02;10.13;;;4.20;;
4307;SDS011;2167;53.448;9.984;2022-09-09T13:43:31;5.50;;;4.27;;
4307;SDS011;2167;53.448;9.984;2022-09-09T13:46:04;7.03;;;4.80;;
4307;SDS011;2167;53.448;9.984;2022-09-09T13:48:53;4.97;;;3.50;;
4307;SDS011;2167;53.448;9.984;2022-09-09T13:54:10;4.10;;;3.70;;
4307;SDS011;2167;53.448;9.984;2022-09-09T13:56:39;6.40;;;3.33;;
4307;SDS011;2167;53.448;9.984;2022-09-09T13:59:06;5.60;;;3.17;;
4307;SDS011;2167;53.448;9.984;2022-09-09T14:01:44;3.57;;;3.13;;
4307;SDS011;2167;53.448;9.984;2022-09-09T14:04:10;2.43;;;2.23;;
4307;SDS011;2167;53.448;9.984;2022-09-09T14:06:36;3.17;;;2.60;;
4307;SDS011;2167;53.448;9.984;2022-09-09T14:09:04;2.60;;;2.20;;
4307;SDS011;2167;53.448;9.984;2022-09-09T14:11:31;3.23;;;2.50;;
4307;SDS011;2167;53.448;9.984;2022-09-09T14:13:57;5.87;;;2.60;;
4307;SDS011;2167;53.448;9.984;2022-09-09T14:16:22;2.40;;;2.00;;
4307;SDS011;2167;53.448;9.984;2022-09-09T14:18:48;3.00;;;2.70;;
4307;SDS011;2167;53.448;9.984;2022-09-09T14:21:13;2.47;;;2.27;;
4307;SDS011;2167;53.448;9.984;2022-09-09T14:23:40;2.07;;;1.87;;
4307;SDS011;2167;53.448;9.984;2022-09-09T14:26:06;3.30;;;1.87;;
4307;SDS011;2167;53.448;9.984;2022-09-09T14:28:33;4.73;;;2.20;;
4307;SDS011;2167;53.448;9.984;2022-09-09T14:31:00;2.13;;;2.00;;
4307;SDS011;2167;53.448;9.984;2022-09-09T14:33:27;2.87;;;1.80;;
4307;SDS011;2167;53.448;9.984;2022-09-09T14:35:56;3.30;;;2.83;;
4307;SDS011;2167;53.448;9.984;2022-09-09T14:38:29;2.77;;;2.57;;
4307;SDS011;2167;53.448;9.984;2022-09-09T14:40:58;1.77;;;1.67;;
4307;SDS011;2167;53.448;9.984;2022-09-09T14:43:24;2.47;;;1.93;;
4307;SDS011;2167;53.448;9.984;2022-09-09T14:45:51;2.07;;;1.90;;
4307;SDS011;2167;53.448;9.984;2022-09-09T14:48:16;8.57;;;2.20;;
4307;SDS011;2167;53.448;9.984;2022-09-09T14:50:42;2.83;;;1.53;;
4307;SDS011;2167;53.448;9.984;2022-09-09T14:53:08;2.33;;;2.07;;
4307;SDS011;2167;53.448;9.984;2022-09-09T14:55:35;2.70;;;1.90;;
4307;SDS011;2167;53.448;9.984;2022-09-09T14:58:01;2.87;;;1.63;;
4307;SDS011;2167;53.448;9.984;2022-09-09T15:00:27;4.50;;;2.13;;
4307;SDS011;2167;53.448;9.984;2022-09-09T15:02:53;2.97;;;2.10;;
4307;SDS011;2167;53.448;9.984;2022-09-09T15:05:19;3.30;;;2.03;;
4307;SDS011;2167;53.448;9.984;2022-09-09T15:07:46;2.70;;;2.20;;
4307;SDS011;2167;53.448;9.984;2022-09-09T15:10:13;2.43;;;2.23;;
4307;SDS011;2167;53.448;9.984;2022-09-09T15:12:38;3.50;;;2.43;;
4307;SDS011;2167;53.448;9.984;2022-09-09T15:15:04;2.37;;;2.20;;
4307;SDS011;2167;53.448;9.984;2022-09-09T15:17:30;3.37;;;2.53;;
4307;SDS011;2167;53.448;9.984;2022-09-09T15:19:56;2.90;;;2.17;;
4307;SDS011;2167;53.448;9.984;2022-09-09T15:22:22;2.70;;;2.10;;
4307;SDS011;2167;53.448;9.984;2022-09-09T15:24:49;2.60;;;2.40;;
4307;SDS011;2167;53.448;9.984;2022-09-09T15:27:15;2.53;;;2.13;;
4307;SDS011;2167;53.448;9.984;2022-09-09T15:29:41;2.30;;;2.17;;
4307;SDS011;2167;53.448;9.984;2022-09-09T15:32:07;5.60;;;2.93;;
4307;SDS011;2167;53.448;9.984;2022-09-09T15:34:33;5.40;;;3.00;;
4307;SDS011;2167;53.448;9.984;2022-09-09T15:36:58;2.70;;;2.40;;
4307;SDS011;2167;53.448;9.984;2022-09-09T15:39:27;3.53;;;2.80;;
4307;SDS011;2167;53.448;9.984;2022-09-09T15:41:53;3.03;;;2.73;;
4307;SDS011;2167;53.448;9.984;2022-09-09T15:44:18;2.20;;;2.00;;
4307;SDS011;2167;53.448;9.984;2022-09-09T15:46:45;3.10;;;1.90;;
4307;SDS011;2167;53.448;9.984;2022-09-09T15:51:41;1.60;;;1.50;;
4307;SDS011;2167;53.448;9.984;2022-09-09T15:54:09;2.00;;;1.33;;
4307;SDS011;2167;53.448;9.984;2022-09-09T15:56:36;1.50;;;1.10;;
4307;SDS011;2167;53.448;9.984;2022-09-09T15:59:02;4.13;;;3.57;;
4307;SDS011;2167;53.448;9.984;2022-09-09T16:01:28;2.43;;;1.50;;
4307;SDS011;2167;53.448;9.984;2022-09-09T16:03:55;3.13;;;1.83;;
4307;SDS011;2167;53.448;9.984;2022-09-09T16:06:23;1.33;;;1.23;;
4307;SDS011;2167;53.448;9.984;2022-09-09T16:08:50;2.50;;;1.87;;
4307;SDS011;2167;53.448;9.984;2022-09-09T16:11:38;2.30;;;2.07;;
4307;SDS011;2167;53.448;9.984;2022-09-09T16:14:04;2.47;;;1.03;;
4307;SDS011;2167;53.448;9.984;2022-09-09T16:16:31;1.77;;;1.40;;
4307;SDS011;2167;53.448;9.984;2022-09-09T16:18:58;4.50;;;1.30;;
4307;SDS011;2167;53.448;9.984;2022-09-09T16:21:26;1.73;;;1.50;;
4307;SDS011;2167;53.448;9.984;2022-09-09T16:23:54;6.07;;;1.20;;
4307;SDS011;2167;53.448;9.984;2022-09-09T16:26:21;1.07;;;1.07;;
4307;SDS011;2167;53.448;9.984;2022-09-09T16:28:47;1.23;;;0.93;;
4307;SDS011;2167;53.448;9.984;2022-09-09T16:31:14;0.90;;;0.90;;
4307;SDS011;2167;53.448;9.984;2022-09-09T16:33:45;1.50;;;0.93;;
4307;SDS011;2167;53.448;9.984;2022-09-09T16:36:13;4.70;;;1.30;;
4307;SDS011;2167;53.448;9.984;2022-09-09T16:38:40;2.03;;;1.43;;
4307;SDS011;2167;53.448;9.984;2022-09-09T16:41:08;1.43;;;1.10;;
4307;SDS011;2167;53.448;9.984;2022-09-09T16:43:36;2.10;;;1.40;;
4307;SDS011;2167;53.448;9.984;2022-09-09T16:46:03;1.43;;;1.33;;
4307;SDS011;2167;53.448;9.984;2022-09-09T16:48:36;1.57;;;1.37;;
4307;SDS011;2167;53.448;9.984;2022-09-09T16:51:05;4.77;;;1.23;;
4307;SDS011;2167;53.448;9.984;2022-09-09T16:53:33;1.47;;;1.37;;
4307;SDS011;2167;53.448;9.984;2022-09-09T16:56:06;2.10;;;1.43;;
4307;SDS011;2167;53.448;9.984;2022-09-09T16:58:33;1.50;;;1.40;;
4307;SDS011;2167;53.448;9.984;2022-09-09T17:00:59;1.77;;;1.30;;
4307;SDS011;2167;53.448;9.984;2022-09-09T17:03:28;3.33;;;1.43;;
4307;SDS011;2167;53.448;9.984;2022-09-09T17:05:54;1.40;;;1.30;;
4307;SDS011;2167;53.448;9.984;2022-09-09T17:08:19;2.00;;;1.20;;
4307;SDS011;2167;53.448;9.984;2022-09-09T17:10:45;1.13;;;1.13;;
4307;SDS011;2167;53.448;9.984;2022-09-09T17:13:12;1.67;;;1.57;;
4307;SDS011;2167;53.448;9.984;2022-09-09T17:15:41;5.13;;;1.97;;
4307;SDS011;2167;53.448;9.984;2022-09-09T17:18:11;1.97;;;1.77;;
4307;SDS011;2167;53.448;9.984;2022-09-09T17:20:37;1.73;;;1.30;;
4307;SDS011;2167;53.448;9.984;2022-09-09T17:23:04;2.73;;;1.37;;
4307;SDS011;2167;53.448;9.984;2022-09-09T17:25:34;3.97;;;2.27;;
4307;SDS011;2167;53.448;9.984;2022-09-09T17:28:00;1.40;;;1.30;;
4307;SDS011;2167;53.448;9.984;2022-09-09T17:30:29;1.50;;;1.40;;
4307;SDS011;2167;53.448;9.984;2022-09-09T17:32:56;1.30;;;1.20;;
4307;SDS011;2167;53.448;9.984;2022-09-09T17:35:22;2.17;;;2.03;;
4307;SDS011;2167;53.448;9.984;2022-09-09T17:37:47;2.20;;;2.00;;
4307;SDS011;2167;53.448;9.984;2022-09-09T17:40:13;3.40;;;2.60;;
4307;SDS011;2167;53.448;9.984;2022-09-09T17:42:39;2.37;;;1.90;;
4307;SDS011;2167;53.448;9.984;2022-09-09T17:45:05;1.73;;;1.63;;
4307;SDS011;2167;53.448;9.984;2022-09-09T17:47:31;2.30;;;2.10;;
4307;SDS011;2167;53.448;9.984;2022-09-09T17:49:57;4.00;;;1.27;;
4307;SDS011;2167;53.448;9.984;2022-09-09T17:52:23;1.93;;;1.83;;
4307;SDS011;2167;53.448;9.984;2022-09-09T17:54:49;1.40;;;1.30;;
4307;SDS011;2167;53.448;9.984;2022-09-09T17:57:15;3.50;;;1.87;;
4307;SDS011;2167;53.448;9.984;2022-09-09T17:59:43;3.50;;;1.97;;